createdAt,value
2017-10-11T00:01:44.264Z,15.00
2017-10-11T00:04:11.820Z,15.00
2017-10-11T00:06:39.290Z,15.10
2017-10-11T00:09:07.508Z,15.00
2017-10-11T00:11:35.015Z,15.00
2017-10-11T00:14:03.239Z,15.00
2017-10-11T00:16:30.704Z,15.00
2017-10-11T00:18:58.191Z,15.00
2017-10-11T00:21:25.642Z,15.00
2017-10-11T00:23:53.207Z,14.90
2017-10-11T00:26:22.200Z,15.00
2017-10-11T00:28:49.779Z,15.00
2017-10-11T00:31:18.108Z,15.00
2017-10-11T00:33:45.597Z,15.00
2017-10-11T00:36:13.152Z,15.00
2017-10-11T00:38:40.706Z,15.00
2017-10-11T00:41:08.267Z,15.00
2017-10-11T00:43:37.250Z,14.90
2017-10-11T00:46:04.719Z,14.90
2017-10-11T00:48:32.270Z,14.90
2017-10-11T00:51:00.511Z,14.90
2017-10-11T00:53:27.986Z,14.90
2017-10-11T00:55:55.450Z,14.90
2017-10-11T00:58:22.920Z,14.90
2017-10-11T01:00:50.387Z,14.90
2017-10-11T01:03:18.636Z,14.90
2017-10-11T01:05:46.118Z,14.90
2017-10-11T01:08:13.594Z,14.90
2017-10-11T01:10:41.052Z,14.90
2017-10-11T01:13:09.303Z,14.90
2017-10-11T01:15:36.764Z,14.90
2017-10-11T01:18:04.223Z,14.90
2017-10-11T01:20:32.478Z,14.90
2017-10-11T01:22:59.943Z,14.90
2017-10-11T01:25:27.404Z,14.90
2017-10-11T01:27:54.892Z,14.90
2017-10-11T01:30:22.368Z,14.90
2017-10-11T01:32:49.832Z,14.90
2017-10-11T01:35:17.306Z,14.90
2017-10-11T01:37:44.759Z,14.90
2017-10-11T01:40:12.214Z,14.90
2017-10-11T01:42:39.707Z,15.00
2017-10-11T01:45:07.220Z,14.90
2017-10-11T01:47:34.695Z,14.90
2017-10-11T01:50:02.169Z,14.90
2017-10-11T01:52:29.637Z,14.90
2017-10-11T01:54:57.879Z,14.90
2017-10-11T01:57:25.455Z,14.90
2017-10-11T01:59:52.932Z,14.90
2017-10-11T02:02:21.195Z,14.90
2017-10-11T02:04:49.433Z,14.90
2017-10-11T02:07:16.893Z,14.90
2017-10-11T02:09:44.367Z,14.90
2017-10-11T02:12:11.826Z,14.90
2017-10-11T02:14:39.320Z,15.00
2017-10-11T02:17:07.567Z,15.00
2017-10-11T02:19:35.020Z,15.00
2017-10-11T02:22:02.843Z,15.00
2017-10-11T02:24:30.363Z,15.00
2017-10-11T02:26:57.845Z,15.00
2017-10-11T02:29:26.075Z,15.00
2017-10-11T02:31:53.552Z,15.10
2017-10-11T02:34:21.782Z,15.10
2017-10-11T02:36:49.517Z,15.10
2017-10-11T02:39:16.988Z,15.10
2017-10-11T02:41:44.459Z,15.10
2017-10-11T02:44:11.924Z,15.10
2017-10-11T02:46:39.399Z,15.10
2017-10-11T02:49:06.936Z,15.00
2017-10-11T02:51:34.404Z,15.00
2017-10-11T02:54:01.876Z,15.00
2017-10-11T02:56:29.324Z,15.00
2017-10-11T02:58:56.823Z,14.90
2017-10-11T03:01:24.335Z,14.90
2017-10-11T03:03:51.864Z,14.90
2017-10-11T03:06:19.318Z,14.90
2017-10-11T03:08:46.792Z,14.90
2017-10-11T03:11:14.257Z,14.90
2017-10-11T03:13:41.735Z,14.90
2017-10-11T03:16:09.196Z,14.90
2017-10-11T03:18:36.655Z,14.90
2017-10-11T03:21:04.895Z,14.90
2017-10-11T03:23:32.359Z,14.80
2017-10-11T03:26:00.572Z,14.90
2017-10-11T03:28:28.827Z,14.80
2017-10-11T03:30:56.294Z,14.80
2017-10-11T03:33:24.582Z,14.90
2017-10-11T03:35:52.823Z,14.90
2017-10-11T03:38:21.235Z,14.80
2017-10-11T03:40:49.466Z,14.80
2017-10-11T03:43:17.000Z,14.80
2017-10-11T03:45:44.467Z,14.80
2017-10-11T03:48:11.963Z,14.80
2017-10-11T03:50:39.457Z,14.80
2017-10-11T03:53:06.980Z,14.80
2017-10-11T03:55:34.459Z,14.80
2017-10-11T03:58:01.948Z,14.80
2017-10-11T04:00:29.460Z,14.80
2017-10-11T04:02:57.712Z,14.80
2017-10-11T04:05:25.280Z,14.70
2017-10-11T04:07:52.836Z,14.80
2017-10-11T04:10:20.316Z,14.70
2017-10-11T04:12:48.548Z,14.70
2017-10-11T04:15:16.025Z,14.70
2017-10-11T04:17:45.003Z,14.70
2017-10-11T04:20:12.471Z,14.70
2017-10-11T04:22:39.930Z,14.70
2017-10-11T04:25:07.524Z,14.70
2017-10-11T04:27:35.005Z,14.70
2017-10-11T04:30:02.480Z,14.70
2017-10-11T04:32:30.152Z,14.70
2017-10-11T04:34:58.132Z,14.70
2017-10-11T04:37:26.389Z,14.70
2017-10-11T04:39:53.849Z,14.70
2017-10-11T04:42:21.311Z,14.70
2017-10-11T04:44:48.787Z,14.70
2017-10-11T04:47:16.276Z,14.80
2017-10-11T04:49:43.740Z,14.80
2017-10-11T04:52:11.203Z,14.80
2017-10-11T04:54:38.688Z,14.80
2017-10-11T04:57:06.155Z,14.80
2017-10-11T04:59:33.845Z,14.80
2017-10-11T05:02:02.121Z,14.80
2017-10-11T05:04:30.368Z,14.80
2017-10-11T05:06:58.385Z,14.70
2017-10-11T05:09:25.897Z,14.80
2017-10-11T05:11:53.358Z,14.80
2017-10-11T05:14:20.839Z,14.80
2017-10-11T05:16:49.085Z,14.70
2017-10-11T05:19:16.664Z,14.60
2017-10-11T05:21:44.212Z,14.70
2017-10-11T05:24:12.453Z,14.70
2017-10-11T05:26:39.931Z,14.60
2017-10-11T05:29:07.424Z,14.70
2017-10-11T05:31:35.660Z,14.70
2017-10-11T05:34:03.134Z,14.70
2017-10-11T05:36:30.737Z,14.70
2017-10-11T05:38:58.239Z,14.70
2017-10-11T05:41:26.152Z,14.70
2017-10-11T05:43:54.383Z,14.70
2017-10-11T05:46:21.961Z,14.70
2017-10-11T05:48:50.225Z,14.70
2017-10-11T05:51:19.198Z,14.70
2017-10-11T05:53:46.840Z,14.70
2017-10-11T05:56:15.315Z,14.70
2017-10-11T05:58:43.103Z,14.70
2017-10-11T06:01:10.599Z,14.70
2017-10-11T06:03:38.908Z,14.70
2017-10-11T06:06:06.395Z,14.70
2017-10-11T06:08:33.879Z,14.70
2017-10-11T06:11:01.341Z,14.70
2017-10-11T06:13:29.587Z,14.80
2017-10-11T06:15:57.054Z,14.70
2017-10-11T06:18:24.540Z,14.70
2017-10-11T06:20:52.783Z,14.80
2017-10-11T06:23:20.264Z,14.80
2017-10-11T06:25:48.506Z,14.80
2017-10-11T06:28:16.208Z,14.80
2017-10-11T06:30:43.755Z,14.90
2017-10-11T06:33:11.995Z,14.90
2017-10-11T06:35:39.478Z,14.80
2017-10-11T06:38:07.007Z,14.80
2017-10-11T06:40:34.479Z,14.80
2017-10-11T06:43:02.051Z,14.90
2017-10-11T06:45:30.290Z,14.80
2017-10-11T06:47:57.799Z,14.80
2017-10-11T06:50:26.038Z,14.90
2017-10-11T06:52:53.615Z,14.90
2017-10-11T06:55:21.088Z,14.90
2017-10-11T06:57:49.312Z,14.90
2017-10-11T07:00:16.775Z,14.90
2017-10-11T07:02:44.239Z,14.90
2017-10-11T07:05:11.714Z,15.00
2017-10-11T07:07:39.180Z,15.00
2017-10-11T07:10:06.639Z,15.00
2017-10-11T07:12:34.188Z,15.00
2017-10-11T07:15:01.655Z,15.10
2017-10-11T07:17:29.203Z,15.10
2017-10-11T07:19:56.667Z,15.10
2017-10-11T07:22:24.239Z,15.10
2017-10-11T07:24:52.475Z,15.20
2017-10-11T07:27:19.948Z,15.20
2017-10-11T07:29:48.181Z,15.20
2017-10-11T07:32:15.655Z,15.20
2017-10-11T07:34:43.152Z,15.20
2017-10-11T07:37:10.711Z,15.20
2017-10-11T07:39:38.174Z,15.20
2017-10-11T07:42:06.407Z,15.30
2017-10-11T07:44:33.871Z,15.30
2017-10-11T07:47:01.325Z,15.30
2017-10-11T07:49:28.800Z,15.40
2017-10-11T07:51:56.280Z,15.40
2017-10-11T07:54:24.526Z,15.50
2017-10-11T07:56:52.051Z,15.50
2017-10-11T07:59:19.523Z,15.60
2017-10-11T08:01:47.021Z,15.60
2017-10-11T08:04:15.267Z,15.60
2017-10-11T08:06:42.736Z,15.60
2017-10-11T08:09:10.213Z,15.50
2017-10-11T08:11:38.477Z,15.50
2017-10-11T08:14:05.944Z,15.50
2017-10-11T08:16:34.184Z,15.60
2017-10-11T08:19:01.655Z,15.50
2017-10-11T08:21:29.127Z,15.50
2017-10-11T08:23:56.583Z,15.50
2017-10-11T08:26:24.902Z,15.50
2017-10-11T08:28:53.175Z,15.60
2017-10-11T08:31:20.628Z,15.60
2017-10-11T08:33:48.156Z,15.60
2017-10-11T08:36:16.395Z,15.70
2017-10-11T08:38:43.869Z,15.70
2017-10-11T08:41:11.334Z,15.80
2017-10-11T08:43:38.901Z,15.90
2017-10-11T08:46:07.167Z,16.10
2017-10-11T08:48:34.635Z,16.10
2017-10-11T08:51:02.858Z,16.20
2017-10-11T08:53:30.345Z,16.20
2017-10-11T08:55:57.831Z,16.20
2017-10-11T08:58:26.055Z,16.10
2017-10-11T09:00:53.520Z,16.00
2017-10-11T09:03:20.998Z,16.00
2017-10-11T09:05:48.556Z,16.00
2017-10-11T09:08:16.008Z,16.00
2017-10-11T09:10:43.476Z,16.00
2017-10-11T09:13:10.940Z,15.90
2017-10-11T09:15:39.195Z,15.90
2017-10-11T09:18:06.660Z,15.90
2017-10-11T09:20:34.132Z,16.00
2017-10-11T09:23:02.355Z,16.10
2017-10-11T09:25:29.806Z,16.10
2017-10-11T09:27:57.281Z,16.10
2017-10-11T09:30:24.747Z,16.10
2017-10-11T09:32:52.275Z,16.20
2017-10-11T09:35:19.777Z,16.30
2017-10-11T09:37:47.243Z,16.50
2017-10-11T09:40:15.488Z,16.50
2017-10-11T09:42:42.948Z,16.50
2017-10-11T09:45:10.425Z,16.50
2017-10-11T09:47:37.893Z,16.60
2017-10-11T09:50:06.152Z,16.60
2017-10-11T09:52:33.624Z,16.50
2017-10-11T09:55:01.852Z,16.60
2017-10-11T09:57:29.326Z,16.60
2017-10-11T09:59:56.784Z,16.60
2017-10-11T10:02:24.250Z,16.50
2017-10-11T10:04:51.724Z,16.50
2017-10-11T10:07:19.984Z,16.40
2017-10-11T10:09:48.204Z,16.40
2017-10-11T10:12:15.677Z,16.30
2017-10-11T10:14:43.155Z,16.40
2017-10-11T10:17:10.610Z,16.50
2017-10-11T10:19:38.077Z,16.50
2017-10-11T10:22:05.547Z,16.50
2017-10-11T10:24:33.007Z,16.50
2017-10-11T10:27:00.468Z,16.60
2017-10-11T10:29:28.724Z,16.80
2017-10-11T10:31:56.195Z,16.80
2017-10-11T10:34:24.433Z,17.30
2017-10-11T10:36:51.898Z,17.20
2017-10-11T10:39:19.377Z,17.40
2017-10-11T10:41:46.835Z,17.50
2017-10-11T10:44:14.403Z,17.70
2017-10-11T10:46:42.641Z,17.70
2017-10-11T10:49:10.218Z,17.60
2017-10-11T10:51:38.451Z,17.50
2017-10-11T10:54:05.955Z,17.50
2017-10-11T10:56:33.427Z,17.40
2017-10-11T10:59:01.664Z,17.20
2017-10-11T11:01:29.167Z,17.10
2017-10-11T11:03:57.414Z,17.30
2017-10-11T11:06:24.880Z,17.30
2017-10-11T11:08:52.344Z,17.40
2017-10-11T11:11:20.566Z,17.30
2017-10-11T11:13:48.022Z,17.30
2017-10-11T11:16:15.496Z,17.40
2017-10-11T11:18:42.952Z,17.30
2017-10-11T11:21:10.451Z,17.30
2017-10-11T11:23:39.016Z,17.50
2017-10-11T11:26:06.468Z,17.50
2017-10-11T11:28:33.931Z,17.60
2017-10-11T11:31:02.924Z,17.50
2017-10-11T11:33:30.383Z,17.50
2017-10-11T11:35:57.892Z,17.50
2017-10-11T11:38:25.368Z,17.40
2017-10-11T11:40:52.826Z,17.30
2017-10-11T11:43:20.288Z,17.30
2017-10-11T11:45:47.780Z,17.30
2017-10-11T11:48:16.007Z,17.30
2017-10-11T11:50:43.475Z,17.30
2017-10-11T11:53:10.951Z,17.40
2017-10-11T11:55:38.407Z,17.30
2017-10-11T11:58:05.870Z,17.20
2017-10-11T12:00:33.340Z,17.20
2017-10-11T12:03:01.650Z,17.20
2017-10-11T12:05:29.099Z,17.10
2017-10-11T12:07:56.612Z,17.20
2017-10-11T12:10:24.072Z,17.20
2017-10-11T12:12:51.532Z,17.30
2017-10-11T12:15:19.079Z,17.40
2017-10-11T12:17:46.721Z,17.40
2017-10-11T12:20:15.230Z,17.40
2017-10-11T12:22:44.257Z,17.30
2017-10-11T12:25:11.799Z,17.30
2017-10-11T12:27:40.079Z,17.20
2017-10-11T12:30:07.633Z,17.20
2017-10-11T12:32:36.033Z,17.30
2017-10-11T12:35:03.613Z,17.30
2017-10-11T12:37:32.082Z,17.30
2017-10-11T12:39:59.622Z,17.30
2017-10-11T12:42:27.144Z,17.30
2017-10-11T12:44:55.587Z,17.20
2017-10-11T12:47:23.100Z,17.20
2017-10-11T12:49:51.406Z,17.10
2017-10-11T12:52:19.639Z,17.10
2017-10-11T12:54:47.161Z,17.00
2017-10-11T12:57:14.628Z,16.90
2017-10-11T12:59:42.082Z,16.90
2017-10-11T13:02:09.555Z,16.80
2017-10-11T13:04:37.121Z,16.80
2017-10-11T13:07:04.583Z,16.80
2017-10-11T13:09:32.043Z,16.70
2017-10-11T13:12:00.269Z,16.70
2017-10-11T13:14:27.726Z,16.70
2017-10-11T13:16:55.210Z,16.70
2017-10-11T13:19:22.663Z,16.80
2017-10-11T13:21:50.245Z,16.80
2017-10-11T13:24:17.703Z,16.80
2017-10-11T13:26:46.018Z,16.70
2017-10-11T13:29:13.484Z,16.70
2017-10-11T13:31:40.951Z,16.70
2017-10-11T13:34:08.403Z,16.60
2017-10-11T13:36:35.875Z,16.50
2017-10-11T13:39:03.355Z,16.40
2017-10-11T13:41:30.814Z,16.40
2017-10-11T13:43:58.274Z,16.40
2017-10-11T13:46:25.756Z,16.30
2017-10-11T13:48:53.217Z,16.20
2017-10-11T13:51:20.675Z,16.20
2017-10-11T13:53:48.141Z,16.20
2017-10-11T13:56:15.595Z,16.20
2017-10-11T13:58:43.043Z,16.20
2017-10-11T14:01:10.639Z,16.10
2017-10-11T14:03:38.106Z,16.10
2017-10-11T14:06:05.570Z,16.10
2017-10-11T14:08:33.043Z,16.10
2017-10-11T14:11:00.499Z,16.10
2017-10-11T14:13:27.959Z,16.10
2017-10-11T14:15:55.663Z,16.10
2017-10-11T14:18:23.128Z,16.10
2017-10-11T14:20:50.608Z,16.20
2017-10-11T14:23:18.066Z,16.20
2017-10-11T14:25:45.518Z,16.30
2017-10-11T14:28:12.983Z,16.20
2017-10-11T14:30:40.447Z,16.30
2017-10-11T14:33:07.927Z,16.30
2017-10-11T14:35:36.143Z,16.30
2017-10-11T14:38:03.628Z,16.30
2017-10-11T14:40:31.067Z,16.40
2017-10-11T14:42:58.531Z,16.30
2017-10-11T14:45:26.004Z,16.30
2017-10-11T14:47:53.525Z,16.30
2017-10-11T14:50:20.978Z,16.20
2017-10-11T14:52:48.678Z,16.20
2017-10-11T14:55:16.139Z,16.20
2017-10-11T14:57:43.602Z,16.10
2017-10-11T15:00:11.110Z,16.10
2017-10-11T15:02:38.647Z,16.20
2017-10-11T15:05:06.099Z,16.10
2017-10-11T15:07:34.348Z,16.20
2017-10-11T15:10:01.801Z,16.20
2017-10-11T15:12:29.268Z,16.20
2017-10-11T15:14:56.785Z,16.20
2017-10-11T15:17:24.235Z,16.20
2017-10-11T15:19:51.692Z,16.20
2017-10-11T15:22:19.194Z,16.10
2017-10-11T15:24:46.647Z,16.10
2017-10-11T15:27:14.102Z,16.00
2017-10-11T15:29:41.568Z,16.00
2017-10-11T15:32:09.030Z,16.00
2017-10-11T15:34:37.250Z,16.00
2017-10-11T15:37:04.727Z,16.00
2017-10-11T15:39:32.183Z,15.90
2017-10-11T15:41:59.650Z,15.90
2017-10-11T15:44:27.120Z,15.90
2017-10-11T15:46:54.575Z,15.90
2017-10-11T15:49:22.060Z,15.80
2017-10-11T15:51:49.546Z,15.80
2017-10-11T15:54:17.061Z,15.80
2017-10-11T15:56:45.312Z,15.80
2017-10-11T15:59:12.783Z,15.80
2017-10-11T16:01:40.244Z,15.70
2017-10-11T16:04:07.696Z,15.70
2017-10-11T16:06:35.171Z,15.70
2017-10-11T16:09:02.655Z,15.60
2017-10-11T16:11:30.124Z,15.60
2017-10-11T16:13:57.618Z,15.60
2017-10-11T16:16:25.107Z,15.60
2017-10-11T16:18:52.580Z,15.60
2017-10-11T16:21:20.051Z,15.60
2017-10-11T16:23:47.517Z,15.60
2017-10-11T16:26:14.981Z,15.50
2017-10-11T16:28:42.458Z,15.50
2017-10-11T16:31:09.915Z,15.50
2017-10-11T16:33:37.371Z,15.40
2017-10-11T16:36:04.863Z,15.40
2017-10-11T16:38:32.318Z,15.40
2017-10-11T16:40:59.780Z,15.40
2017-10-11T16:43:27.247Z,15.30
2017-10-11T16:45:54.709Z,15.30
2017-10-11T16:48:22.166Z,15.30
2017-10-11T16:50:49.630Z,15.30
2017-10-11T16:53:17.110Z,15.20
2017-10-11T16:55:44.566Z,15.20
2017-10-11T16:58:12.040Z,15.20
2017-10-11T17:00:39.487Z,15.20
2017-10-11T17:03:06.954Z,15.20
2017-10-11T17:05:34.420Z,15.00
2017-10-11T17:08:01.888Z,15.00
2017-10-11T17:10:30.131Z,15.00
2017-10-11T17:12:57.815Z,15.00
2017-10-11T17:15:26.035Z,14.90
2017-10-11T17:17:53.490Z,14.90
2017-10-11T17:20:21.069Z,14.80
2017-10-11T17:22:48.541Z,14.80
2017-10-11T17:25:15.991Z,14.80
2017-10-11T17:27:43.473Z,14.80
2017-10-11T17:30:11.706Z,14.80
2017-10-11T17:32:39.172Z,14.80
2017-10-11T17:35:06.895Z,14.80
2017-10-11T17:37:34.364Z,14.80
2017-10-11T17:40:01.836Z,14.90
2017-10-11T17:42:29.317Z,14.90
2017-10-11T17:44:56.800Z,14.90
2017-10-11T17:47:25.018Z,14.90
2017-10-11T17:49:52.732Z,14.90
2017-10-11T17:52:20.961Z,14.90
2017-10-11T17:54:48.630Z,14.90
2017-10-11T17:57:16.420Z,14.90
2017-10-11T17:59:43.871Z,14.90
2017-10-11T18:02:11.331Z,14.90
2017-10-11T18:04:38.807Z,14.90
2017-10-11T18:07:07.045Z,14.90
2017-10-11T18:09:34.509Z,14.90
2017-10-11T18:12:01.984Z,14.80
2017-10-11T18:14:29.450Z,14.80
2017-10-11T18:16:57.685Z,14.80
2017-10-11T18:19:25.146Z,14.80
2017-10-11T18:21:52.619Z,14.80
2017-10-11T18:24:20.078Z,14.70
2017-10-11T18:26:47.543Z,14.70
2017-10-11T18:29:15.000Z,14.70
2017-10-11T18:31:42.457Z,14.70
2017-10-11T18:34:10.711Z,14.70
2017-10-11T18:36:38.188Z,14.70
2017-10-11T18:39:05.653Z,14.70
2017-10-11T18:41:33.892Z,14.70
2017-10-11T18:44:01.357Z,14.70
2017-10-11T18:46:28.818Z,14.70
2017-10-11T18:48:56.280Z,14.70
2017-10-11T18:51:23.779Z,14.70
2017-10-11T18:53:51.240Z,14.70
2017-10-11T18:56:18.711Z,14.70
2017-10-11T18:58:46.185Z,14.80
2017-10-11T19:01:13.678Z,14.80
2017-10-11T19:03:41.919Z,14.80
2017-10-11T19:06:09.383Z,14.70
2017-10-11T19:08:36.844Z,14.70
2017-10-11T19:11:04.368Z,14.80
2017-10-11T19:13:31.826Z,14.80
2017-10-11T19:15:59.292Z,14.80
2017-10-11T19:18:26.768Z,14.80
2017-10-11T19:20:54.236Z,14.80
2017-10-11T19:23:21.708Z,14.80
2017-10-11T19:25:49.957Z,14.80
2017-10-11T19:28:17.408Z,14.80
2017-10-11T19:30:44.878Z,14.80
2017-10-11T19:33:12.380Z,14.70
2017-10-11T19:35:39.919Z,14.70
2017-10-11T19:38:08.144Z,14.80
2017-10-11T19:40:35.846Z,14.80
2017-10-11T19:43:04.084Z,14.80
2017-10-11T19:45:32.254Z,14.80
2017-10-11T19:47:59.725Z,14.90
2017-10-11T19:50:27.187Z,14.90
2017-10-11T19:52:54.641Z,14.90
2017-10-11T19:55:22.120Z,14.90
2017-10-11T19:57:49.584Z,14.90
2017-10-11T20:00:21.597Z,14.90
2017-10-11T20:02:49.311Z,14.90
2017-10-11T20:05:17.540Z,14.90
2017-10-11T20:07:45.012Z,14.90
2017-10-11T20:10:12.463Z,14.90
2017-10-11T20:12:39.925Z,14.90
2017-10-11T20:15:07.504Z,14.90
2017-10-11T20:17:34.954Z,14.90
2017-10-11T20:20:02.417Z,14.90
2017-10-11T20:22:29.968Z,14.90
2017-10-11T20:24:57.540Z,14.90
2017-10-11T20:27:24.994Z,14.90
2017-10-11T20:29:53.383Z,15.00
2017-10-11T20:32:21.747Z,14.90
2017-10-11T20:34:49.996Z,15.00
2017-10-11T20:37:17.476Z,15.00
2017-10-11T20:39:45.036Z,15.00
2017-10-11T20:42:12.499Z,15.00
2017-10-11T20:44:40.935Z,15.10
2017-10-11T20:47:08.392Z,15.10
2017-10-11T20:49:35.863Z,15.10
2017-10-11T20:52:03.347Z,15.10
2017-10-11T20:54:32.997Z,15.20
2017-10-11T20:57:00.453Z,15.10
2017-10-11T20:59:27.971Z,15.20
2017-10-11T21:01:56.208Z,15.20
2017-10-11T21:04:23.683Z,15.20
2017-10-11T21:06:51.156Z,15.20
2017-10-11T21:09:18.671Z,15.20
2017-10-11T21:11:46.172Z,15.30
2017-10-11T21:14:13.646Z,15.30
2017-10-11T21:16:41.928Z,15.30
2017-10-11T21:19:10.180Z,15.30
2017-10-11T21:21:38.418Z,15.30
2017-10-11T21:24:05.907Z,15.30
2017-10-11T21:26:33.382Z,15.30
2017-10-11T21:29:01.648Z,15.30
2017-10-11T21:31:29.911Z,15.30
2017-10-11T21:33:57.375Z,15.20
2017-10-11T21:36:24.948Z,15.20
2017-10-11T21:38:53.216Z,14.90
2017-10-11T21:41:21.471Z,14.90
2017-10-11T21:43:48.940Z,14.90
2017-10-11T21:46:16.492Z,14.80
2017-10-11T21:48:43.990Z,14.80
2017-10-11T21:51:11.452Z,14.80
2017-10-11T21:53:38.962Z,14.70
2017-10-11T21:56:06.522Z,14.70
2017-10-11T21:58:34.099Z,14.60
2017-10-11T22:01:02.323Z,14.50
2017-10-11T22:03:29.811Z,14.50
2017-10-11T22:05:57.282Z,14.50
2017-10-11T22:08:24.835Z,14.50
2017-10-11T22:10:52.299Z,14.50
2017-10-11T22:13:20.535Z,14.60
2017-10-11T22:15:47.996Z,14.50
2017-10-11T22:18:15.459Z,14.60
2017-10-11T22:20:42.915Z,14.70
2017-10-11T22:23:10.372Z,14.70
2017-10-11T22:25:37.841Z,14.80
2017-10-11T22:28:06.808Z,14.80
2017-10-11T22:30:34.275Z,14.80
2017-10-11T22:33:01.988Z,14.90
2017-10-11T22:35:29.448Z,14.90
2017-10-11T22:37:56.966Z,15.00
2017-10-11T22:40:24.518Z,15.00
2017-10-11T22:42:51.988Z,15.10
2017-10-11T22:45:19.541Z,15.10
2017-10-11T22:47:47.016Z,15.10
2017-10-11T22:50:15.282Z,15.10
2017-10-11T22:52:42.832Z,15.10
2017-10-11T22:55:10.298Z,15.10
2017-10-11T22:57:37.748Z,15.20
2017-10-11T23:00:05.302Z,15.20
2017-10-11T23:02:32.867Z,15.20
2017-10-11T23:05:00.427Z,15.20
2017-10-11T23:07:27.995Z,15.10
2017-10-11T23:09:55.557Z,15.10
2017-10-11T23:12:23.824Z,15.00
2017-10-11T23:14:52.093Z,15.00
2017-10-11T23:17:21.075Z,14.90
2017-10-11T23:19:48.543Z,14.90
2017-10-11T23:22:16.016Z,14.90
2017-10-11T23:24:44.260Z,14.70
2017-10-11T23:27:11.735Z,14.70
2017-10-11T23:29:39.196Z,14.70
2017-10-11T23:32:06.659Z,14.80
2017-10-11T23:34:34.884Z,14.80
2017-10-11T23:37:02.344Z,14.80
2017-10-11T23:39:29.835Z,14.70
2017-10-11T23:41:57.294Z,14.70
2017-10-11T23:44:24.760Z,14.70
2017-10-11T23:46:53.547Z,14.70
2017-10-11T23:49:21.807Z,14.60
2017-10-11T23:51:50.784Z,14.60
2017-10-11T23:54:18.350Z,14.60
2017-10-11T23:56:45.911Z,14.70
2017-10-11T23:59:13.372Z,14.70
